Le'a Le'a Elua — LEALEA — position and weather

sailwx.info

Track history (hours):
 
Tides and Currents Weather Stations Pressure Air Temp Water Temp Dewpoint Dewpoint Depression Visibility Wind Speed Wind Dir Waves Ship Positions

Le'a Le'a Elua

Last reported at 2018-Jun-23 00:30 UTC. Time now 2018-Jun-23 00:44 UTC.
Position N 37°55' E 023°42'.

Length 14 m.

MMSI: 239787500.

Date/timePositionNaut miles runAvg speedWind from/ knotsBaromVisibWave heightAir tempDewpointWater temp
2018-Jun-23 00:30N 37°55' E 023°42'0 0.0
2018-Jun-23 00:00N 37°55' E 023°42'0 0.0
2018-Jun-22 23:30N 37°55' E 023°42'0 0.0
2018-Jun-22 23:00N 37°55' E 023°42'0 0.0
2018-Jun-22 22:30N 37°55' E 023°42'0 0.0
2018-Jun-22 22:00N 37°55' E 023°42'0 0.0
2018-Jun-22 21:30N 37°55' E 023°42'0 0.0
2018-Jun-22 21:00N 37°55' E 023°42'0 0.0
2018-Jun-22 20:30N 37°55' E 023°42'0 0.0
2018-Jun-22 20:00N 37°55' E 023°42'0 0.0
2018-Jun-22 19:30N 37°55' E 023°42'0 0.0
2018-Jun-22 19:00N 37°55' E 023°42'0 0.0
2018-Jun-22 18:30N 37°55' E 023°42'0 0.0
2018-Jun-22 18:00N 37°55' E 023°42'0 0.0
2018-Jun-22 17:30N 37°55' E 023°42'0 0.0
2018-Jun-22 17:00N 37°55' E 023°42'0 0.0
2018-Jun-22 16:30N 37°55' E 023°42'0 0.0
2018-Jun-22 16:00N 37°55' E 023°42'0 0.0
2018-Jun-22 15:30N 37°55' E 023°42'0 0.0
2018-Jun-22 15:00N 37°55' E 023°42'0 0.0
2018-Jun-22 14:30N 37°55' E 023°42'0 0.0
2018-Jun-22 14:00N 37°55' E 023°42'0 0.0
2018-Jun-22 13:30N 37°55' E 023°42'0 0.0
2018-Jun-22 13:00N 37°55' E 023°42'0 0.0
2018-Jun-22 12:30N 37°55' E 023°42'0 0.0
2018-Jun-22 12:00N 37°55' E 023°42'0 0.0
2018-Jun-22 11:30N 37°55' E 023°42'0 0.4
2018-Jun-22 11:00N 37°55' E 023°42'4 8.6
2018-Jun-22 10:30N 37°54' E 023°37'4 8.7
2018-Jun-22 10:00N 37°53' E 023°31'5 8.6
2018-Jun-22 09:29N 37°52' E 023°26'4 8.9
2018-Jun-22 09:01N 37°53' E 023°20'5 9.2
2018-Jun-22 08:30N 37°53' E 023°15'5 9.2
2018-Jun-22 08:00N 37°54' E 023°09'4 8.6
2018-Jun-22 07:30N 37°54' E 023°03'2 4.3
2018-Jun-22 07:00N 37°55' E 023°01'0 0.3
2018-Jun-22 06:30N 37°55' E 023°01'4 7.7
2018-Jun-22 06:00N 37°53' E 023°05'4 8.1
2018-Jun-22 05:30N 37°50' E 023°08'4 8.0
2018-Jun-22 04:59N 37°48' E 023°13'6 8.2
2018-Jun-22 04:17N 37°45' E 023°19'2 7.8
2018-Jun-22 04:00N 37°43' E 023°21'3 0.2
2018-Jun-21 16:13N 37°41' E 023°19'2 7.3
2018-Jun-21 15:59N 37°43' E 023°20'5 0.2
2018-Jun-20 09:33N 37°40' E 023°15'  
2018-Jun-17 05:49N 37°41' E 023°31'3 8.7
2018-Jun-17 05:30N 37°43' E 023°34'4 8.7
2018-Jun-17 05:00N 37°46' E 023°37'4 8.7
2018-Jun-17 04:30N 37°50' E 023°40'4 8.3
2018-Jun-17 04:00N 37°54' E 023°42'1 2.0
2018-Jun-17 03:28N 37°55' E 023°42'0 0.0
2018-Jun-17 02:58N 37°55' E 023°42'0 0.0
2018-Jun-17 02:28N 37°55' E 023°42'0 0.0
2018-Jun-17 01:58N 37°55' E 023°42'0 0.0
2018-Jun-17 01:28N 37°55' E 023°42'0 0.0
2018-Jun-17 00:58N 37°55' E 023°42'0 0.0
2018-Jun-17 00:28N 37°55' E 023°42'0 0.0
2018-Jun-16 23:58N 37°55' E 023°42'0 0.0
2018-Jun-16 23:28N 37°55' E 023°42'0 0.0
2018-Jun-16 22:58N 37°55' E 023°42'0 0.0
2018-Jun-16 22:28N 37°55' E 023°42'0 0.0
2018-Jun-16 21:58N 37°55' E 023°42'0 0.0
2018-Jun-16 21:28N 37°55' E 023°42'0 0.0
2018-Jun-16 20:58N 37°55' E 023°42'0 0.0
2018-Jun-16 20:28N 37°55' E 023°42'0 0.0
2018-Jun-16 19:58N 37°55' E 023°42'0 0.0
2018-Jun-16 19:28N 37°55' E 023°42'0 0.0
2018-Jun-16 18:58N 37°55' E 023°42'0 0.0
2018-Jun-16 18:28N 37°55' E 023°42'0 0.0
2018-Jun-16 17:58N 37°55' E 023°42'0 0.0
2018-Jun-16 17:25N 37°55' E 023°42'0 0.0
2018-Jun-16 16:58N 37°55' E 023°42'0 0.0
2018-Jun-16 16:28N 37°55' E 023°42'0 0.0
2018-Jun-16 15:58N 37°55' E 023°42'0 0.0
2018-Jun-16 15:28N 37°55' E 023°42'0 0.0
2018-Jun-16 14:58N 37°55' E 023°42'0 0.0
2018-Jun-16 14:28N 37°55' E 023°42'0 0.0
2018-Jun-16 13:58N 37°55' E 023°42'0 0.0
2018-Jun-16 13:28N 37°55' E 023°42'0 0.0
2018-Jun-16 12:58N 37°55' E 023°42'0 0.0
2018-Jun-16 12:28N 37°55' E 023°42'0 0.0
2018-Jun-16 11:58N 37°55' E 023°42'0 0.0
2018-Jun-16 11:28N 37°55' E 023°42'0 0.0
2018-Jun-16 10:58N 37°55' E 023°42'0 0.0
2018-Jun-16 10:28N 37°55' E 023°42'0 0.0
2018-Jun-16 09:58N 37°55' E 023°42'0 0.0
2018-Jun-16 09:28N 37°55' E 023°42'0 0.0
2018-Jun-16 09:00N 37°55' E 023°42'0 0.0
2018-Jun-16 08:30N 37°55' E 023°42'0 0.0
2018-Jun-16 08:00N 37°55' E 023°42'0 0.0
2018-Jun-16 07:30N 37°55' E 023°42'0 0.0
2018-Jun-16 07:00N 37°55' E 023°42'0 0.0
2018-Jun-16 06:30N 37°55' E 023°42'0 0.0
2018-Jun-16 06:00N 37°55' E 023°42'0 0.0
2018-Jun-16 05:30N 37°55' E 023°42'0 0.0
2018-Jun-16 05:00N 37°55' E 023°42'0 0.0
2018-Jun-16 04:30N 37°55' E 023°42'0 0.0
2018-Jun-16 04:00N 37°55' E 023°42'0 0.0
2018-Jun-16 03:30N 37°55' E 023°42'0 0.0
2018-Jun-16 03:00N 37°55' E 023°42'0 0.0
2018-Jun-16 02:30N 37°55' E 023°42'0 0.0
2018-Jun-16 02:00N 37°55' E 023°42'0 0.0
2018-Jun-16 01:30N 37°55' E 023°42'0 0.0
2018-Jun-16 01:00N 37°55' E 023°42'0 0.0
2018-Jun-16 00:30N 37°55' E 023°42'0 0.0
2018-Jun-16 00:00N 37°55' E 023°42'0 0.0
2018-Jun-15 23:30N 37°55' E 023°42'0 0.0
2018-Jun-15 23:00N 37°55' E 023°42'0 0.0
2018-Jun-15 22:30N 37°55' E 023°42'0 0.0
2018-Jun-15 22:00N 37°55' E 023°42'0 0.0
2018-Jun-15 21:30N 37°55' E 023°42'0 0.0
2018-Jun-15 21:00N 37°55' E 023°42'0 0.0
2018-Jun-15 20:30N 37°55' E 023°42'0 0.0
2018-Jun-15 20:00N 37°55' E 023°42'0 0.0
2018-Jun-15 19:30N 37°55' E 023°42'0 0.0
2018-Jun-15 19:00N 37°55' E 023°42'0 0.0
2018-Jun-15 18:30N 37°55' E 023°42'0 0.0
2018-Jun-15 18:00N 37°55' E 023°42'0 0.0
2018-Jun-15 17:30N 37°55' E 023°42'0 0.0
2018-Jun-15 17:00N 37°55' E 023°42'0 0.0
2018-Jun-15 16:30N 37°55' E 023°42'0 0.0
2018-Jun-15 16:00N 37°55' E 023°42'0 0.0
2018-Jun-15 15:30N 37°55' E 023°42'0 0.0
2018-Jun-15 15:00N 37°55' E 023°42'0 0.0
2018-Jun-15 14:30N 37°55' E 023°42'0 0.0
2018-Jun-15 14:00N 37°55' E 023°42'0 0.0
2018-Jun-15 13:30N 37°55' E 023°42'0 0.0
2018-Jun-15 13:00N 37°55' E 023°42'0 0.0
2018-Jun-15 12:30N 37°55' E 023°42'0 0.0
2018-Jun-15 12:00N 37°55' E 023°42'0 0.0
2018-Jun-15 11:30N 37°55' E 023°42'0 0.0
2018-Jun-15 11:00N 37°55' E 023°42'0 0.0
2018-Jun-15 10:30N 37°55' E 023°42'0 0.0
2018-Jun-15 10:00N 37°55' E 023°42'0 0.0
2018-Jun-15 09:30N 37°55' E 023°42'0 0.0
2018-Jun-15 09:00N 37°55' E 023°42'0 0.0
2018-Jun-15 08:30N 37°55' E 023°42'0 0.0
2018-Jun-15 08:00N 37°55' E 023°42'0 0.0
2018-Jun-15 07:30N 37°55' E 023°42'0 0.0
2018-Jun-15 07:00N 37°55' E 023°42'0 0.0
2018-Jun-15 06:24N 37°55' E 023°42'0 0.0
2018-Jun-15 06:00N 37°55' E 023°42'0 0.0
2018-Jun-15 05:30N 37°55' E 023°42'0 0.0
2018-Jun-15 05:00N 37°55' E 023°42'0 0.0
2018-Jun-15 04:30N 37°55' E 023°42'0 0.0
2018-Jun-15 03:59N 37°55' E 023°42'0 0.0
2018-Jun-15 03:29N 37°55' E 023°42'0 0.0
2018-Jun-15 02:59N 37°55' E 023°42'0 0.0
2018-Jun-15 02:29N 37°55' E 023°42'0 0.0
2018-Jun-15 01:59N 37°55' E 023°42'0 0.0
2018-Jun-15 01:29N 37°55' E 023°42'0 0.0
2018-Jun-15 00:59N 37°55' E 023°42'0 0.0
2018-Jun-15 00:29N 37°55' E 023°42'0 0.0
2018-Jun-14 23:59N 37°55' E 023°42'0 0.0
2018-Jun-14 23:29N 37°55' E 023°42'0 0.0
2018-Jun-14 22:59N 37°55' E 023°42'0 0.0
2018-Jun-14 22:29N 37°55' E 023°42'0 0.0
2018-Jun-14 21:59N 37°55' E 023°42'0 0.0
2018-Jun-14 21:29N 37°55' E 023°42'0 0.0
2018-Jun-14 20:59N 37°55' E 023°42'0 0.0
2018-Jun-14 20:29N 37°55' E 023°42'0 0.0
2018-Jun-14 19:59N 37°55' E 023°42'0 0.0
2018-Jun-14 19:29N 37°55' E 023°42'0 0.0
2018-Jun-14 18:59N 37°55' E 023°42'0 0.0
2018-Jun-14 18:26N 37°55' E 023°42'0 0.0
2018-Jun-14 17:59N 37°55' E 023°42'0 0.0
2018-Jun-14 17:29N 37°55' E 023°42'0 0.0
2018-Jun-14 16:59N 37°55' E 023°42'0 0.0
2018-Jun-14 16:29N 37°55' E 023°42'0 0.0
2018-Jun-14 15:59N 37°55' E 023°42'0 0.0
2018-Jun-14 15:29N 37°55' E 023°42'0 0.0
2018-Jun-14 14:59N 37°55' E 023°42'0 0.0
2018-Jun-14 14:29N 37°55' E 023°42'0 0.0
2018-Jun-14 13:59N 37°55' E 023°42'0 0.0
2018-Jun-14 13:29N 37°55' E 023°42'0 0.0
2018-Jun-14 12:59N 37°55' E 023°42'0 0.0
2018-Jun-14 12:29N 37°55' E 023°42'0 0.0
2018-Jun-14 11:59N 37°55' E 023°42'0 0.0
2018-Jun-14 11:29N 37°55' E 023°42'0 0.0
2018-Jun-14 10:59N 37°55' E 023°42'0 0.0
2018-Jun-14 10:29N 37°55' E 023°42'0 0.0
2018-Jun-14 09:59N 37°55' E 023°42'0 0.0
2018-Jun-14 09:29N 37°55' E 023°42'0 0.0
2018-Jun-14 08:59N 37°55' E 023°42'0 0.0
2018-Jun-14 05:44N 37°55' E 023°42'0 0.0
2018-Jun-14 04:20N 37°55' E 023°42'0 0.0
2018-Jun-13 21:07N 37°55' E 023°42'0 0.0
2018-Jun-13 20:53N 37°55' E 023°42'0 0.0
2018-Jun-13 19:59N 37°55' E 023°42'0 0.0
2018-Jun-13 19:23N 37°55' E 023°42'0 0.0
2018-Jun-13 18:59N 37°55' E 023°42'0 0.0
2018-Jun-13 18:23N 37°55' E 023°42'0 0.0
2018-Jun-13 17:59N 37°55' E 023°42'0 0.0
2018-Jun-13 17:29N 37°55' E 023°42'0 0.0
2018-Jun-13 16:59N 37°55' E 023°42'0 0.0
2018-Jun-13 14:41N 37°55' E 023°42'0 0.0
2018-Jun-13 14:29N 37°55' E 023°42'0 0.0
2018-Jun-13 13:59N 37°55' E 023°42'0 0.0
2018-Jun-13 13:29N 37°55' E 023°42'0 0.0
2018-Jun-13 12:59N 37°55' E 023°42'0 0.0
2018-Jun-13 12:29N 37°55' E 023°42'0 0.0
2018-Jun-13 11:59N 37°55' E 023°42'0 0.0
2018-Jun-13 11:29N 37°55' E 023°42'0 0.0
2018-Jun-13 10:59N 37°55' E 023°42'0 0.0
2018-Jun-13 10:29N 37°55' E 023°42'0 0.0
2018-Jun-13 09:59N 37°55' E 023°42'0 0.0
2018-Jun-13 09:29N 37°55' E 023°42'0 0.0
2018-Jun-13 08:59N 37°55' E 023°42'0 0.0
2018-Jun-13 08:29N 37°55' E 023°42'0 0.0
2018-Jun-13 07:59N 37°55' E 023°42'0 0.0
2018-Jun-13 07:29N 37°55' E 023°42'0 0.0
2018-Jun-13 06:59N 37°55' E 023°42'0 0.0
2018-Jun-13 06:29N 37°55' E 023°42'0 0.0
2018-Jun-13 05:59N 37°55' E 023°42'0 0.0
2018-Jun-13 05:29N 37°55' E 023°42'0 0.0
2018-Jun-13 04:59N 37°55' E 023°42'0 0.0
2018-Jun-13 04:29N 37°55' E 023°42'0 0.0
2018-Jun-13 03:59N 37°55' E 023°42'0 0.0
2018-Jun-13 03:29N 37°55' E 023°42'0 0.0
2018-Jun-13 02:59N 37°55' E 023°42'0 0.0
2018-Jun-13 02:29N 37°55' E 023°42'0 0.0
2018-Jun-13 01:59N 37°55' E 023°42'0 0.0
2018-Jun-13 01:29N 37°55' E 023°42'0 0.0
2018-Jun-13 00:59N 37°55' E 023°42'  
Track history (hours):
 
Tides and Currents Weather Stations Pressure Air Temp Water Temp Dewpoint Dewpoint Depression Visibility Wind Speed Wind Dir Waves Ship Positions

Le'a Le'a Elua

Last reported at 2018-Jun-23 00:30 UTC. Time now 2018-Jun-23 00:44 UTC.
Position N 37°55' E 023°42'.

Length 14 m.

MMSI: 239787500.

Date/timePositionNaut miles runAvg speedWind from/ knotsBaromVisibWave heightAir tempDewpointWater temp
2018-Jun-23 00:30N 37°55' E 023°42'0 0.0
2018-Jun-23 00:00N 37°55' E 023°42'0 0.0
2018-Jun-22 23:30N 37°55' E 023°42'0 0.0
2018-Jun-22 23:00N 37°55' E 023°42'0 0.0
2018-Jun-22 22:30N 37°55' E 023°42'0 0.0
2018-Jun-22 22:00N 37°55' E 023°42'0 0.0
2018-Jun-22 21:30N 37°55' E 023°42'0 0.0
2018-Jun-22 21:00N 37°55' E 023°42'0 0.0
2018-Jun-22 20:30N 37°55' E 023°42'0 0.0
2018-Jun-22 20:00N 37°55' E 023°42'0 0.0
2018-Jun-22 19:30N 37°55' E 023°42'0 0.0
2018-Jun-22 19:00N 37°55' E 023°42'0 0.0
2018-Jun-22 18:30N 37°55' E 023°42'0 0.0
2018-Jun-22 18:00N 37°55' E 023°42'0 0.0
2018-Jun-22 17:30N 37°55' E 023°42'0 0.0
2018-Jun-22 17:00N 37°55' E 023°42'0 0.0
2018-Jun-22 16:30N 37°55' E 023°42'0 0.0
2018-Jun-22 16:00N 37°55' E 023°42'0 0.0
2018-Jun-22 15:30N 37°55' E 023°42'0 0.0
2018-Jun-22 15:00N 37°55' E 023°42'0 0.0
2018-Jun-22 14:30N 37°55' E 023°42'0 0.0
2018-Jun-22 14:00N 37°55' E 023°42'0 0.0
2018-Jun-22 13:30N 37°55' E 023°42'0 0.0
2018-Jun-22 13:00N 37°55' E 023°42'0 0.0
2018-Jun-22 12:30N 37°55' E 023°42'0 0.0
2018-Jun-22 12:00N 37°55' E 023°42'0 0.0
2018-Jun-22 11:30N 37°55' E 023°42'0 0.4
2018-Jun-22 11:00N 37°55' E 023°42'4 8.6
2018-Jun-22 10:30N 37°54' E 023°37'4 8.7
2018-Jun-22 10:00N 37°53' E 023°31'5 8.6
2018-Jun-22 09:29N 37°52' E 023°26'4 8.9
2018-Jun-22 09:01N 37°53' E 023°20'5 9.2
2018-Jun-22 08:30N 37°53' E 023°15'5 9.2
2018-Jun-22 08:00N 37°54' E 023°09'4 8.6
2018-Jun-22 07:30N 37°54' E 023°03'2 4.3
2018-Jun-22 07:00N 37°55' E 023°01'0 0.3
2018-Jun-22 06:30N 37°55' E 023°01'4 7.7
2018-Jun-22 06:00N 37°53' E 023°05'4 8.1
2018-Jun-22 05:30N 37°50' E 023°08'4 8.0
2018-Jun-22 04:59N 37°48' E 023°13'6 8.2
2018-Jun-22 04:17N 37°45' E 023°19'2 7.8
2018-Jun-22 04:00N 37°43' E 023°21'3 0.2
2018-Jun-21 16:13N 37°41' E 023°19'2 7.3
2018-Jun-21 15:59N 37°43' E 023°20'5 0.2
2018-Jun-20 09:33N 37°40' E 023°15'  
2018-Jun-17 05:49N 37°41' E 023°31'3 8.7
2018-Jun-17 05:30N 37°43' E 023°34'4 8.7
2018-Jun-17 05:00N 37°46' E 023°37'4 8.7
2018-Jun-17 04:30N 37°50' E 023°40'4 8.3
2018-Jun-17 04:00N 37°54' E 023°42'1 2.0
2018-Jun-17 03:28N 37°55' E 023°42'0 0.0
2018-Jun-17 02:58N 37°55' E 023°42'0 0.0
2018-Jun-17 02:28N 37°55' E 023°42'0 0.0
2018-Jun-17 01:58N 37°55' E 023°42'0 0.0
2018-Jun-17 01:28N 37°55' E 023°42'0 0.0
2018-Jun-17 00:58N 37°55' E 023°42'0 0.0
2018-Jun-17 00:28N 37°55' E 023°42'0 0.0
2018-Jun-16 23:58N 37°55' E 023°42'0 0.0
2018-Jun-16 23:28N 37°55' E 023°42'0 0.0
2018-Jun-16 22:58N 37°55' E 023°42'0 0.0
2018-Jun-16 22:28N 37°55' E 023°42'0 0.0
2018-Jun-16 21:58N 37°55' E 023°42'0 0.0
2018-Jun-16 21:28N 37°55' E 023°42'0 0.0
2018-Jun-16 20:58N 37°55' E 023°42'0 0.0
2018-Jun-16 20:28N 37°55' E 023°42'0 0.0
2018-Jun-16 19:58N 37°55' E 023°42'0 0.0
2018-Jun-16 19:28N 37°55' E 023°42'0 0.0
2018-Jun-16 18:58N 37°55' E 023°42'0 0.0
2018-Jun-16 18:28N 37°55' E 023°42'0 0.0
2018-Jun-16 17:58N 37°55' E 023°42'0 0.0
2018-Jun-16 17:25N 37°55' E 023°42'0 0.0
2018-Jun-16 16:58N 37°55' E 023°42'0 0.0
2018-Jun-16 16:28N 37°55' E 023°42'0 0.0
2018-Jun-16 15:58N 37°55' E 023°42'0 0.0
2018-Jun-16 15:28N 37°55' E 023°42'0 0.0
2018-Jun-16 14:58N 37°55' E 023°42'0 0.0
2018-Jun-16 14:28N 37°55' E 023°42'0 0.0
2018-Jun-16 13:58N 37°55' E 023°42'0 0.0
2018-Jun-16 13:28N 37°55' E 023°42'0 0.0
2018-Jun-16 12:58N 37°55' E 023°42'0 0.0
2018-Jun-16 12:28N 37°55' E 023°42'0 0.0
2018-Jun-16 11:58N 37°55' E 023°42'0 0.0
2018-Jun-16 11:28N 37°55' E 023°42'0 0.0
2018-Jun-16 10:58N 37°55' E 023°42'0 0.0
2018-Jun-16 10:28N 37°55' E 023°42'0 0.0
2018-Jun-16 09:58N 37°55' E 023°42'0 0.0
2018-Jun-16 09:28N 37°55' E 023°42'0 0.0
2018-Jun-16 09:00N 37°55' E 023°42'0 0.0
2018-Jun-16 08:30N 37°55' E 023°42'0 0.0
2018-Jun-16 08:00N 37°55' E 023°42'0 0.0
2018-Jun-16 07:30N 37°55' E 023°42'0 0.0
2018-Jun-16 07:00N 37°55' E 023°42'0 0.0
2018-Jun-16 06:30N 37°55' E 023°42'0 0.0
2018-Jun-16 06:00N 37°55' E 023°42'0 0.0
2018-Jun-16 05:30N 37°55' E 023°42'0 0.0
2018-Jun-16 05:00N 37°55' E 023°42'0 0.0
2018-Jun-16 04:30N 37°55' E 023°42'0 0.0
2018-Jun-16 04:00N 37°55' E 023°42'0 0.0
2018-Jun-16 03:30N 37°55' E 023°42'0 0.0
2018-Jun-16 03:00N 37°55' E 023°42'0 0.0
2018-Jun-16 02:30N 37°55' E 023°42'0 0.0
2018-Jun-16 02:00N 37°55' E 023°42'0 0.0
2018-Jun-16 01:30N 37°55' E 023°42'0 0.0
2018-Jun-16 01:00N 37°55' E 023°42'0 0.0
2018-Jun-16 00:30N 37°55' E 023°42'0 0.0
2018-Jun-16 00:00N 37°55' E 023°42'0 0.0
2018-Jun-15 23:30N 37°55' E 023°42'0 0.0
2018-Jun-15 23:00N 37°55' E 023°42'0 0.0
2018-Jun-15 22:30N 37°55' E 023°42'0 0.0
2018-Jun-15 22:00N 37°55' E 023°42'0 0.0
2018-Jun-15 21:30N 37°55' E 023°42'0 0.0
2018-Jun-15 21:00N 37°55' E 023°42'0 0.0
2018-Jun-15 20:30N 37°55' E 023°42'0 0.0
2018-Jun-15 20:00N 37°55' E 023°42'0 0.0
2018-Jun-15 19:30N 37°55' E 023°42'0 0.0
2018-Jun-15 19:00N 37°55' E 023°42'0 0.0
2018-Jun-15 18:30N 37°55' E 023°42'0 0.0
2018-Jun-15 18:00N 37°55' E 023°42'0 0.0
2018-Jun-15 17:30N 37°55' E 023°42'0 0.0
2018-Jun-15 17:00N 37°55' E 023°42'0 0.0
2018-Jun-15 16:30N 37°55' E 023°42'0 0.0
2018-Jun-15 16:00N 37°55' E 023°42'0 0.0
2018-Jun-15 15:30N 37°55' E 023°42'0 0.0
2018-Jun-15 15:00N 37°55' E 023°42'0 0.0
2018-Jun-15 14:30N 37°55' E 023°42'0 0.0
2018-Jun-15 14:00N 37°55' E 023°42'0 0.0
2018-Jun-15 13:30N 37°55' E 023°42'0 0.0
2018-Jun-15 13:00N 37°55' E 023°42'0 0.0
2018-Jun-15 12:30N 37°55' E 023°42'0 0.0
2018-Jun-15 12:00N 37°55' E 023°42'0 0.0
2018-Jun-15 11:30N 37°55' E 023°42'0 0.0
2018-Jun-15 11:00N 37°55' E 023°42'0 0.0
2018-Jun-15 10:30N 37°55' E 023°42'0 0.0
2018-Jun-15 10:00N 37°55' E 023°42'0 0.0
2018-Jun-15 09:30N 37°55' E 023°42'0 0.0
2018-Jun-15 09:00N 37°55' E 023°42'0 0.0
2018-Jun-15 08:30N 37°55' E 023°42'0 0.0
2018-Jun-15 08:00N 37°55' E 023°42'0 0.0
2018-Jun-15 07:30N 37°55' E 023°42'0 0.0
2018-Jun-15 07:00N 37°55' E 023°42'0 0.0
2018-Jun-15 06:24N 37°55' E 023°42'0 0.0
2018-Jun-15 06:00N 37°55' E 023°42'0 0.0
2018-Jun-15 05:30N 37°55' E 023°42'0 0.0
2018-Jun-15 05:00N 37°55' E 023°42'0 0.0
2018-Jun-15 04:30N 37°55' E 023°42'0 0.0
2018-Jun-15 03:59N 37°55' E 023°42'0 0.0
2018-Jun-15 03:29N 37°55' E 023°42'0 0.0
2018-Jun-15 02:59N 37°55' E 023°42'0 0.0
2018-Jun-15 02:29N 37°55' E 023°42'0 0.0
2018-Jun-15 01:59N 37°55' E 023°42'0 0.0
2018-Jun-15 01:29N 37°55' E 023°42'0 0.0
2018-Jun-15 00:59N 37°55' E 023°42'0 0.0
2018-Jun-15 00:29N 37°55' E 023°42'0 0.0
2018-Jun-14 23:59N 37°55' E 023°42'0 0.0
2018-Jun-14 23:29N 37°55' E 023°42'0 0.0
2018-Jun-14 22:59N 37°55' E 023°42'0 0.0
2018-Jun-14 22:29N 37°55' E 023°42'0 0.0
2018-Jun-14 21:59N 37°55' E 023°42'0 0.0
2018-Jun-14 21:29N 37°55' E 023°42'0 0.0
2018-Jun-14 20:59N 37°55' E 023°42'0 0.0
2018-Jun-14 20:29N 37°55' E 023°42'0 0.0
2018-Jun-14 19:59N 37°55' E 023°42'0 0.0
2018-Jun-14 19:29N 37°55' E 023°42'0 0.0
2018-Jun-14 18:59N 37°55' E 023°42'0 0.0
2018-Jun-14 18:26N 37°55' E 023°42'0 0.0
2018-Jun-14 17:59N 37°55' E 023°42'0 0.0
2018-Jun-14 17:29N 37°55' E 023°42'0 0.0
2018-Jun-14 16:59N 37°55' E 023°42'0 0.0
2018-Jun-14 16:29N 37°55' E 023°42'0 0.0
2018-Jun-14 15:59N 37°55' E 023°42'0 0.0
2018-Jun-14 15:29N 37°55' E 023°42'0 0.0
2018-Jun-14 14:59N 37°55' E 023°42'0 0.0
2018-Jun-14 14:29N 37°55' E 023°42'0 0.0
2018-Jun-14 13:59N 37°55' E 023°42'0 0.0
2018-Jun-14 13:29N 37°55' E 023°42'0 0.0
2018-Jun-14 12:59N 37°55' E 023°42'0 0.0
2018-Jun-14 12:29N 37°55' E 023°42'0 0.0
2018-Jun-14 11:59N 37°55' E 023°42'0 0.0
2018-Jun-14 11:29N 37°55' E 023°42'0 0.0
2018-Jun-14 10:59N 37°55' E 023°42'0 0.0
2018-Jun-14 10:29N 37°55' E 023°42'0 0.0
2018-Jun-14 09:59N 37°55' E 023°42'0 0.0
2018-Jun-14 09:29N 37°55' E 023°42'0 0.0
2018-Jun-14 08:59N 37°55' E 023°42'0 0.0
2018-Jun-14 05:44N 37°55' E 023°42'0 0.0
2018-Jun-14 04:20N 37°55' E 023°42'0 0.0
2018-Jun-13 21:07N 37°55' E 023°42'0 0.0
2018-Jun-13 20:53N 37°55' E 023°42'0 0.0
2018-Jun-13 19:59N 37°55' E 023°42'0 0.0
2018-Jun-13 19:23N 37°55' E 023°42'0 0.0
2018-Jun-13 18:59N 37°55' E 023°42'0 0.0
2018-Jun-13 18:23N 37°55' E 023°42'0 0.0
2018-Jun-13 17:59N 37°55' E 023°42'0 0.0
2018-Jun-13 17:29N 37°55' E 023°42'0 0.0
2018-Jun-13 16:59N 37°55' E 023°42'0 0.0
2018-Jun-13 14:41N 37°55' E 023°42'0 0.0
2018-Jun-13 14:29N 37°55' E 023°42'0 0.0
2018-Jun-13 13:59N 37°55' E 023°42'0 0.0
2018-Jun-13 13:29N 37°55' E 023°42'0 0.0
2018-Jun-13 12:59N 37°55' E 023°42'0 0.0
2018-Jun-13 12:29N 37°55' E 023°42'0 0.0
2018-Jun-13 11:59N 37°55' E 023°42'0 0.0
2018-Jun-13 11:29N 37°55' E 023°42'0 0.0
2018-Jun-13 10:59N 37°55' E 023°42'0 0.0
2018-Jun-13 10:29N 37°55' E 023°42'0 0.0
2018-Jun-13 09:59N 37°55' E 023°42'0 0.0
2018-Jun-13 09:29N 37°55' E 023°42'0 0.0
2018-Jun-13 08:59N 37°55' E 023°42'0 0.0
2018-Jun-13 08:29N 37°55' E 023°42'0 0.0
2018-Jun-13 07:59N 37°55' E 023°42'0 0.0
2018-Jun-13 07:29N 37°55' E 023°42'0 0.0
2018-Jun-13 06:59N 37°55' E 023°42'0 0.0
2018-Jun-13 06:29N 37°55' E 023°42'0 0.0
2018-Jun-13 05:59N 37°55' E 023°42'0 0.0
2018-Jun-13 05:29N 37°55' E 023°42'0 0.0
2018-Jun-13 04:59N 37°55' E 023°42'0 0.0
2018-Jun-13 04:29N 37°55' E 023°42'0 0.0
2018-Jun-13 03:59N 37°55' E 023°42'0 0.0
2018-Jun-13 03:29N 37°55' E 023°42'0 0.0
2018-Jun-13 02:59N 37°55' E 023°42'0 0.0
2018-Jun-13 02:29N 37°55' E 023°42'0 0.0
2018-Jun-13 01:59N 37°55' E 023°42'0 0.0
2018-Jun-13 01:29N 37°55' E 023°42'0 0.0
2018-Jun-13 00:59N 37°55' E 023°42'  

Dump ship's entire track history